createdAt,value
2019-03-25T00:02:22.566Z,72.41
2019-03-25T00:07:26.007Z,71.82
2019-03-25T00:12:29.482Z,72.31
2019-03-25T00:17:32.917Z,72.92
2019-03-25T00:22:36.346Z,72.89
2019-03-25T00:27:39.776Z,72.61
2019-03-25T00:32:43.205Z,71.51
2019-03-25T00:37:46.632Z,72.34
2019-03-25T00:42:50.064Z,71.66
2019-03-25T00:47:53.486Z,71.16
2019-03-25T00:52:56.910Z,71.51
2019-03-25T00:58:00.325Z,69.86
2019-03-25T01:03:03.736Z,70.13
2019-03-25T01:08:07.155Z,69.91
2019-03-25T01:13:10.581Z,69.48
2019-03-25T01:18:17.191Z,69.77
2019-03-25T01:23:19.136Z,68.34
2019-03-25T01:28:22.595Z,68.26
2019-03-25T01:33:26.045Z,68.87
2019-03-25T01:38:29.458Z,69.58
2019-03-25T01:43:32.872Z,69.24
2019-03-25T01:48:36.298Z,70.04
2019-03-25T01:53:39.762Z,68.92
2019-03-25T01:58:43.214Z,69.40
2019-03-25T02:03:46.668Z,68.99
2019-03-25T02:08:50.175Z,69.00
2019-03-25T02:13:53.629Z,68.54
2019-03-25T02:18:57.080Z,67.88
2019-03-25T02:24:00.547Z,68.54
2019-03-25T02:29:04.029Z,72.12
2019-03-25T02:34:07.510Z,73.34
2019-03-25T02:39:10.954Z,72.02
2019-03-25T02:44:14.390Z,72.89
2019-03-25T02:49:17.845Z,72.93
2019-03-25T02:54:21.313Z,73.19
2019-03-25T02:59:24.749Z,73.25
2019-03-25T03:04:28.268Z,74.24
2019-03-25T03:09:31.734Z,74.95
2019-03-25T03:14:35.194Z,74.87
2019-03-25T03:19:38.660Z,75.27
2019-03-25T03:24:42.097Z,75.99
2019-03-25T03:29:45.548Z,77.29
2019-03-25T03:34:49.095Z,78.42
2019-03-25T03:39:52.561Z,81.88
2019-03-25T03:44:55.997Z,84.76
2019-03-25T03:49:59.441Z,89.43
2019-03-25T03:55:03.353Z,90.43
2019-03-25T04:00:37.374Z,90.82
2019-03-25T04:05:40.831Z,90.48
2019-03-25T04:10:44.322Z,90.53
2019-03-25T04:15:47.829Z,88.92
2019-03-25T04:20:51.250Z,88.54
2019-03-25T04:25:54.689Z,88.44
2019-03-25T04:30:58.088Z,87.12
2019-03-25T04:36:01.529Z,86.39
2019-03-25T04:41:04.976Z,86.42
2019-03-25T04:46:08.397Z,86.80
2019-03-25T04:51:12.184Z,86.42
2019-03-25T04:56:15.631Z,87.94
2019-03-25T05:01:19.078Z,88.27
2019-03-25T05:06:22.616Z,88.26
2019-03-25T05:11:30.639Z,88.40
2019-03-25T05:16:31.323Z,89.29
2019-03-25T05:21:34.810Z,88.52
2019-03-25T05:26:38.230Z,87.76
2019-03-25T05:31:41.805Z,86.51
2019-03-25T05:36:45.241Z,86.61
2019-03-25T05:41:48.678Z,86.38
2019-03-25T05:46:52.120Z,86.21
2019-03-25T05:51:55.805Z,85.03
2019-03-25T05:57:02.682Z,86.06
2019-03-25T06:02:04.500Z,85.32
2019-03-25T06:07:07.950Z,86.30
2019-03-25T06:12:11.374Z,86.52
2019-03-25T06:17:14.812Z,87.10
2019-03-25T06:22:18.241Z,89.09
2019-03-25T06:27:21.696Z,89.66
2019-03-25T06:32:25.140Z,90.35
2019-03-25T06:37:28.543Z,91.88
2019-03-25T06:42:31.942Z,91.09
2019-03-25T06:47:35.352Z,91.16
2019-03-25T06:52:38.888Z,90.94
2019-03-25T06:57:42.343Z,90.59
2019-03-25T07:02:45.786Z,90.39
2019-03-25T07:07:49.244Z,89.21
2019-03-25T07:12:52.722Z,90.15
2019-03-25T07:17:56.697Z,90.72
2019-03-25T07:23:00.116Z,89.35
2019-03-25T07:28:03.547Z,90.38
2019-03-25T07:33:06.953Z,93.11
2019-03-25T07:38:10.390Z,95.02
2019-03-25T07:43:13.833Z,97.08
2019-03-25T07:48:17.270Z,97.05
2019-03-25T07:53:20.839Z,97.41
2019-03-25T07:58:24.252Z,94.74
2019-03-25T08:03:27.793Z,93.13
2019-03-25T08:08:31.300Z,91.59
2019-03-25T08:13:34.730Z,92.03
2019-03-25T08:18:38.229Z,92.22
2019-03-25T08:23:41.634Z,92.23
2019-03-25T08:28:45.061Z,94.28
2019-03-25T08:33:48.477Z,94.19
2019-03-25T08:38:52.161Z,94.46
2019-03-25T08:43:55.613Z,92.52
2019-03-25T08:48:59.062Z,91.38
2019-03-25T08:54:02.516Z,88.98
2019-03-25T08:59:06.028Z,85.63
2019-03-25T09:04:09.454Z,85.87
2019-03-25T09:09:12.882Z,83.94
2019-03-25T09:14:16.365Z,80.78
2019-03-25T09:19:20.370Z,84.41
2019-03-25T09:24:23.924Z,87.46
2019-03-25T09:29:27.422Z,87.56
2019-03-25T09:34:30.877Z,90.13
2019-03-25T09:39:34.305Z,89.09
2019-03-25T09:44:37.810Z,88.66
2019-03-25T09:49:41.661Z,89.02
2019-03-25T09:54:45.123Z,91.81
2019-03-25T09:59:48.581Z,89.65
2019-03-25T10:04:51.978Z,90.36
2019-03-25T10:09:55.396Z,87.46
2019-03-25T10:14:58.813Z,84.06
2019-03-25T10:20:02.239Z,78.37
2019-03-25T10:25:07.852Z,78.03
2019-03-25T10:30:13.110Z,81.85
2019-03-25T10:35:16.725Z,82.84
2019-03-25T10:40:20.148Z,84.84
2019-03-25T10:45:26.056Z,85.52
2019-03-25T10:50:29.555Z,84.59
2019-03-25T10:55:32.969Z,81.97
2019-03-25T11:00:36.899Z,82.37
2019-03-25T11:05:40.336Z,78.54
2019-03-25T11:10:43.820Z,76.67
2019-03-25T11:15:47.247Z,72.39
2019-03-25T11:20:50.692Z,70.65
2019-03-25T11:25:54.228Z,65.70
2019-03-25T11:30:58.474Z,69.11
2019-03-25T11:36:02.883Z,66.21
2019-03-25T11:41:06.458Z,68.10
2019-03-25T11:46:10.018Z,63.01
2019-03-25T11:51:13.450Z,58.62
2019-03-25T11:56:16.937Z,58.48
2019-03-25T12:01:20.386Z,57.18
2019-03-25T12:06:23.862Z,56.25
2019-03-25T12:11:27.284Z,54.58
2019-03-25T12:16:31.545Z,57.27
2019-03-25T12:21:35.097Z,58.98
2019-03-25T12:26:38.613Z,62.14
2019-03-25T12:31:42.033Z,66.70
2019-03-25T12:36:45.516Z,63.70
2019-03-25T12:41:48.949Z,60.90
2019-03-25T12:46:52.366Z,61.11
2019-03-25T12:51:56.133Z,67.26
2019-03-25T12:57:00.687Z,72.25
2019-03-25T13:02:04.274Z,70.33
2019-03-25T13:07:07.721Z,66.06
2019-03-25T13:12:11.165Z,62.10
2019-03-25T13:17:14.598Z,60.29
2019-03-25T13:22:18.039Z,58.92
2019-03-25T13:27:21.464Z,59.07
2019-03-25T13:32:25.000Z,60.66
2019-03-25T13:37:28.430Z,61.32
2019-03-25T13:42:31.898Z,65.97
2019-03-25T13:47:35.294Z,77.06
2019-03-25T13:52:38.708Z,81.23
2019-03-25T13:57:42.185Z,79.82
2019-03-25T14:02:45.864Z,83.13
2019-03-25T14:07:49.737Z,83.34
2019-03-25T14:12:53.344Z,83.08
2019-03-25T14:17:56.961Z,78.55
2019-03-25T14:23:00.450Z,81.74
2019-03-25T14:28:03.932Z,82.45
2019-03-25T14:33:07.609Z,81.05
2019-03-25T14:38:11.110Z,82.97
2019-03-25T14:43:14.693Z,85.95
2019-03-25T14:48:18.179Z,87.10
2019-03-25T14:53:22.706Z,86.06
2019-03-25T14:58:26.269Z,87.36
2019-03-25T15:03:29.881Z,84.67
2019-03-25T15:08:33.379Z,84.85
2019-03-25T15:13:36.826Z,82.62
2019-03-25T15:18:40.446Z,82.73
2019-03-25T15:23:44.165Z,79.61
2019-03-25T15:28:47.691Z,78.23
2019-03-25T15:33:52.132Z,78.61
2019-03-25T15:38:55.622Z,78.04
2019-03-25T15:43:59.016Z,78.00
2019-03-25T15:49:02.429Z,75.57
2019-03-25T15:54:06.016Z,76.12
2019-03-25T15:59:09.975Z,75.41
2019-03-25T16:04:13.825Z,77.66
2019-03-25T16:09:17.319Z,78.33
2019-03-25T16:14:23.536Z,79.34
2019-03-25T16:19:27.353Z,77.67
2019-03-25T16:24:30.780Z,77.23
2019-03-25T16:29:35.080Z,77.28
2019-03-25T16:34:38.592Z,77.55
2019-03-25T16:39:42.013Z,77.25
2019-03-25T16:44:45.440Z,77.26
2019-03-25T16:49:48.908Z,76.99
2019-03-25T16:54:52.397Z,78.78
2019-03-25T16:59:55.977Z,79.29
2019-03-25T17:04:59.433Z,82.17
2019-03-25T17:10:02.871Z,82.75
2019-03-25T17:15:08.086Z,83.56
2019-03-25T17:20:11.725Z,82.73
2019-03-25T17:25:15.394Z,81.37
2019-03-25T17:30:19.747Z,83.68
2019-03-25T17:35:23.448Z,83.61
2019-03-25T17:40:27.055Z,81.71
2019-03-25T17:45:30.567Z,82.25
2019-03-25T17:50:34.157Z,81.46
2019-03-25T17:55:37.655Z,81.12
2019-03-25T18:00:50.393Z,80.56
2019-03-25T18:05:53.832Z,81.78
2019-03-25T18:10:57.335Z,81.48
2019-03-25T18:16:00.790Z,79.94
2019-03-25T18:21:04.271Z,78.82
2019-03-25T18:26:07.694Z,78.31
2019-03-25T18:31:11.397Z,78.18
2019-03-25T18:36:14.813Z,76.41
2019-03-25T18:41:18.314Z,76.81
2019-03-25T18:46:21.888Z,77.99
2019-03-25T18:51:25.379Z,77.83
2019-03-25T18:56:28.956Z,78.89
2019-03-25T19:01:32.647Z,79.34
2019-03-25T19:06:36.992Z,80.48
2019-03-25T19:11:40.431Z,81.25
2019-03-25T19:16:43.858Z,81.10
2019-03-25T19:21:47.317Z,81.97
2019-03-25T19:26:50.775Z,82.18
2019-03-25T19:32:05.878Z,83.08
2019-03-25T19:36:59.366Z,83.57
2019-03-25T19:42:03.655Z,83.69
2019-03-25T19:47:07.151Z,83.73
2019-03-25T19:52:10.575Z,84.21
2019-03-25T19:57:14.084Z,84.85
2019-03-25T20:02:19.192Z,86.09
2019-03-25T20:07:31.168Z,85.80
2019-03-25T20:12:44.618Z,86.92
2019-03-25T20:17:57.630Z,86.86
2019-03-25T20:23:12.439Z,86.95
2019-03-25T20:28:16.479Z,87.15
2019-03-25T20:33:19.929Z,87.27
2019-03-25T20:38:23.443Z,87.30
2019-03-25T20:43:26.865Z,87.70
2019-03-25T20:48:30.303Z,86.13
2019-03-25T20:53:33.782Z,89.24
2019-03-25T20:58:37.202Z,89.37
2019-03-25T21:03:42.259Z,90.06
2019-03-25T21:08:45.629Z,88.82
2019-03-25T21:13:49.249Z,89.33
2019-03-25T21:18:52.722Z,90.66
2019-03-25T21:23:56.129Z,90.38
2019-03-25T21:29:00.258Z,90.10
2019-03-25T21:34:03.842Z,91.41
2019-03-25T21:39:07.649Z,92.10
2019-03-25T21:44:11.191Z,93.46
2019-03-25T21:49:14.582Z,93.47
2019-03-25T21:54:18.050Z,93.46
2019-03-25T21:59:21.576Z,93.62
2019-03-25T22:04:25.005Z,94.58
2019-03-25T22:09:28.429Z,95.22
2019-03-25T22:14:31.845Z,97.60
2019-03-25T22:19:35.273Z,98.20
2019-03-25T22:24:38.713Z,99.36
2019-03-25T22:29:42.141Z,99.18
2019-03-25T22:34:45.577Z,99.03
2019-03-25T22:39:49.019Z,98.94
2019-03-25T22:44:52.434Z,98.07
2019-03-25T22:49:55.847Z,97.84
2019-03-25T22:54:59.268Z,97.85
2019-03-25T23:00:02.681Z,99.38
2019-03-25T23:05:06.954Z,98.07
2019-03-25T23:10:10.577Z,97.02
2019-03-25T23:15:14.129Z,96.51
2019-03-25T23:20:18.760Z,97.03
2019-03-25T23:25:22.430Z,96.35
2019-03-25T23:30:26.319Z,97.13
2019-03-25T23:35:29.705Z,97.64
2019-03-25T23:40:33.123Z,96.49
2019-03-25T23:45:36.770Z,97.32
2019-03-25T23:50:40.179Z,95.80
2019-03-25T23:55:43.599Z,96.86
